Aérodrome :
LOGIN :

S'inscrire | Disclaimer

   EN    FR    IT 

 










Légende :    VFR   VFR Marginal   IFR   IFR Intensif   IFR Très Intensif
Visi : 
Plafond : 
>= 8 km
>= 3000ft
5 à 8 km
1000 à 3000 ft
1500m à 5 km
500 à 1000 ft
800 à 1500m
200 à 500 ft
< 800m
< 200 ft
Symboles :   Orages  Brouillard  Fortes neiges  Fortes précipitations  Vent > 20 kt
SIGMETs :   Divers  Orages  Givrage  Turbulence  Onde Orograph.  Cendres Volcan.






- Altitude de l'aérodrome : 86 ft


LERT - Rota Navy

DERNIER METAR :
  • 020300Z AUTO 06002KT 6000 2100E FEW005/// 16/15 Q1014

METARs EXPIRÉS :
  • 020200Z AUTO VRB01KT 4800 BR NSC 18/18 Q1014
  • 020100Z AUTO 00000KT 6000 NCD 18/17 Q1015

TAF TAF LERT
Valide du 02 à 03h jusqu'au 02 à 12h UTC


020200Z 0203/0212 18005KT 9999 SCT020
PROB40
TEMPO 0203/0207 4000 BR
PROB30
TEMPO 0203/0206 1500 BR BKN003



MET'MAP, la Météo Aéronautique d'un coup d'oeil ! - Copyright ORBIFLY Décembre 2007 - Disclaimer

ORBIFLY MET'MAP TEAM :

Programmation & Développement : Alexandra Zaïnal
Sur une idée originale de : Baudouin d'Aumeries
Assistance à la programmation : Marc-Olivier Méhu
Soutien technique & logistique : Manuel Goepfert

Contact : metmap@orbifly.com




SOURCES & CREDITS :

   NOAA